createdAt,value
2019-04-02T00:00:26.965Z,27.40
2019-04-02T00:02:54.297Z,29.20
2019-04-02T00:05:21.573Z,25.93
2019-04-02T00:07:49.337Z,28.00
2019-04-02T00:10:16.894Z,28.03
2019-04-02T00:12:44.165Z,30.90
2019-04-02T00:15:11.520Z,25.77
2019-04-02T00:17:39.478Z,29.37
2019-04-02T00:20:06.978Z,26.50
2019-04-02T00:22:34.577Z,26.27
2019-04-02T00:25:02.183Z,27.13
2019-04-02T00:27:29.834Z,25.27
2019-04-02T00:29:57.490Z,25.83
2019-04-02T00:32:24.821Z,25.97
2019-04-02T00:34:52.103Z,27.30
2019-04-02T00:37:19.347Z,23.37
2019-04-02T00:39:46.668Z,27.50
2019-04-02T00:42:13.932Z,26.37
2019-04-02T00:44:41.201Z,31.10
2019-04-02T00:47:08.434Z,27.13
2019-04-02T00:49:35.712Z,27.63
2019-04-02T00:52:03.245Z,27.10
2019-04-02T00:54:31.255Z,28.50
2019-04-02T00:56:58.955Z,28.77
2019-04-02T00:59:26.206Z,30.93
2019-04-02T01:01:53.613Z,28.93
2019-04-02T01:04:20.866Z,27.67
2019-04-02T01:06:48.189Z,30.60
2019-04-02T01:09:16.054Z,29.83
2019-04-02T01:11:43.533Z,29.73
2019-04-02T01:14:10.678Z,26.73
2019-04-02T01:16:38.054Z,27.63
2019-04-02T01:19:05.292Z,28.27
2019-04-02T01:21:32.558Z,29.50
2019-04-02T01:24:00.178Z,27.93
2019-04-02T01:26:28.666Z,28.07
2019-04-02T01:29:10.620Z,26.13
2019-04-02T01:31:38.217Z,29.07
2019-04-02T01:34:05.453Z,30.17
2019-04-02T01:36:32.750Z,28.43
2019-04-02T01:39:00.342Z,29.80
2019-04-02T01:41:28.581Z,27.43
2019-04-02T01:43:55.833Z,28.70
2019-04-02T01:46:23.360Z,30.40
2019-04-02T01:48:50.956Z,29.93
2019-04-02T01:51:18.506Z,30.90
2019-04-02T01:53:45.758Z,29.83
2019-04-02T01:56:13.113Z,27.30
2019-04-02T01:58:40.457Z,31.57
2019-04-02T02:01:07.852Z,27.70
2019-04-02T02:03:35.357Z,29.97
2019-04-02T02:06:02.623Z,29.03
2019-04-02T02:08:29.877Z,27.90
2019-04-02T02:10:57.251Z,26.90
2019-04-02T02:13:24.497Z,27.93
2019-04-02T02:15:51.779Z,30.10
2019-04-02T02:18:20.177Z,29.93
2019-04-02T02:20:48.354Z,29.40
2019-04-02T02:23:15.593Z,29.10
2019-04-02T02:25:43.265Z,32.53
2019-04-02T02:28:10.850Z,28.43
2019-04-02T02:30:38.226Z,30.43
2019-04-02T02:33:06.513Z,32.27
2019-04-02T02:35:34.522Z,28.80
2019-04-02T02:38:01.771Z,29.57
2019-04-02T02:41:05.523Z,32.03
2019-04-02T02:43:32.854Z,30.47
2019-04-02T02:46:00.427Z,32.20
2019-04-02T02:48:27.764Z,28.70
2019-04-02T02:50:55.686Z,33.63
2019-04-02T02:53:22.920Z,31.07
2019-04-02T02:55:52.647Z,31.87
2019-04-02T02:58:19.816Z,33.37
2019-04-02T03:00:46.990Z,32.40
2019-04-02T03:03:14.296Z,30.53
2019-04-02T03:05:41.547Z,32.87
2019-04-02T03:08:08.834Z,33.10
2019-04-02T03:10:36.623Z,32.03
2019-04-02T03:13:06.731Z,31.63
2019-04-02T03:15:33.377Z,33.30
2019-04-02T03:18:00.654Z,35.97
2019-04-02T03:20:27.889Z,37.00
2019-04-02T03:22:55.154Z,31.83
2019-04-02T03:25:22.707Z,33.03
2019-04-02T03:27:50.082Z,32.87
2019-04-02T03:30:27.821Z,32.73
2019-04-02T03:32:55.956Z,33.70
2019-04-02T03:35:23.387Z,33.47
2019-04-02T03:37:50.770Z,32.80
2019-04-02T03:40:18.137Z,32.80
2019-04-02T03:42:46.159Z,31.67
2019-04-02T03:45:13.832Z,31.20
2019-04-02T03:47:44.021Z,34.23
2019-04-02T03:50:10.361Z,35.87
2019-04-02T03:52:37.761Z,33.83
2019-04-02T03:55:05.066Z,30.63
2019-04-02T03:57:32.433Z,33.63
2019-04-02T04:00:00.393Z,39.00
2019-04-02T04:02:27.677Z,34.30
2019-04-02T04:04:55.310Z,34.33
2019-04-02T04:07:23.030Z,32.43
2019-04-02T04:09:50.285Z,35.83
2019-04-02T04:12:17.631Z,36.93
2019-04-02T04:14:45.948Z,37.20
2019-04-02T04:17:13.744Z,37.77
2019-04-02T04:19:41.057Z,34.23
2019-04-02T04:22:08.874Z,38.67
2019-04-02T04:24:36.802Z,42.83
2019-04-02T04:27:04.113Z,40.47
2019-04-02T04:29:34.118Z,41.30
2019-04-02T04:32:01.015Z,38.93
2019-04-02T04:34:28.683Z,41.27
2019-04-02T04:36:56.231Z,36.20
2019-04-02T04:39:23.658Z,39.17
2019-04-02T04:41:50.991Z,38.70
2019-04-02T04:44:21.453Z,42.23
2019-04-02T04:46:49.378Z,42.43
2019-04-02T04:49:16.802Z,41.17
2019-04-02T04:51:44.013Z,40.17
2019-04-02T04:54:11.630Z,37.43
2019-04-02T04:56:39.005Z,39.63
2019-04-02T04:59:06.947Z,37.10
2019-04-02T05:01:34.196Z,39.63
2019-04-02T05:04:38.844Z,40.07
2019-04-02T05:07:05.989Z,39.53
2019-04-02T05:09:33.638Z,40.63
2019-04-02T05:12:01.312Z,43.80
2019-04-02T05:14:28.617Z,43.00
2019-04-02T05:16:56.206Z,41.47
2019-04-02T05:19:23.892Z,40.40
2019-04-02T05:21:51.460Z,39.87
2019-04-02T05:24:18.842Z,38.77
2019-04-02T05:26:46.457Z,40.10
2019-04-02T05:29:15.647Z,38.73
2019-04-02T05:31:43.450Z,41.10
2019-04-02T05:34:12.938Z,40.87
2019-04-02T05:36:40.717Z,39.20
2019-04-02T05:39:08.421Z,35.77
2019-04-02T05:41:36.572Z,36.70
2019-04-02T05:44:04.322Z,41.33
2019-04-02T05:46:31.629Z,40.70
2019-04-02T05:48:59.218Z,39.60
2019-04-02T05:51:26.725Z,38.83
2019-04-02T05:53:54.787Z,49.10
2019-04-02T05:56:22.103Z,47.17
2019-04-02T05:58:49.873Z,38.60
2019-04-02T06:01:19.054Z,41.57
2019-04-02T06:03:46.680Z,41.03
2019-04-02T06:06:14.043Z,37.63
2019-04-02T06:08:41.700Z,39.53
2019-04-02T06:11:08.941Z,37.93
2019-04-02T06:13:36.188Z,40.03
2019-04-02T06:16:03.475Z,36.43
2019-04-02T06:18:31.118Z,37.67
2019-04-02T06:20:58.485Z,38.57
2019-04-02T06:23:28.409Z,36.87
2019-04-02T06:25:58.337Z,37.90
2019-04-02T06:28:25.783Z,36.00
2019-04-02T06:30:53.456Z,37.83
2019-04-02T06:33:21.257Z,40.13
2019-04-02T06:35:49.245Z,33.60
2019-04-02T06:38:16.816Z,35.43
2019-04-02T06:40:44.135Z,38.30
2019-04-02T06:43:12.457Z,39.07
2019-04-02T06:45:39.841Z,40.33
2019-04-02T06:48:21.698Z,35.40
2019-04-02T06:50:50.041Z,37.93
2019-04-02T06:53:17.293Z,38.30
2019-04-02T06:55:45.143Z,38.97
2019-04-02T06:58:12.566Z,42.60
2019-04-02T07:00:40.399Z,42.20
2019-04-02T07:03:08.033Z,41.67
2019-04-02T07:05:35.375Z,39.67
2019-04-02T07:08:02.604Z,41.80
2019-04-02T07:10:42.795Z,37.37
2019-04-02T07:12:59.326Z,40.70
2019-04-02T07:15:27.140Z,42.67
2019-04-02T07:17:55.033Z,38.30
2019-04-02T07:20:22.442Z,39.13
2019-04-02T07:22:49.679Z,38.50
2019-04-02T07:25:17.076Z,34.83
2019-04-02T07:27:44.344Z,39.33
2019-04-02T07:30:12.728Z,42.17
2019-04-02T07:32:40.228Z,36.37
2019-04-02T07:35:08.368Z,37.20
2019-04-02T07:37:36.544Z,37.63
2019-04-02T07:40:13.031Z,39.17
2019-04-02T07:42:40.673Z,37.30
2019-04-02T07:45:10.647Z,37.27
2019-04-02T07:47:38.574Z,36.17
2019-04-02T07:50:08.536Z,42.77
2019-04-02T07:52:36.004Z,39.43
2019-04-02T07:55:04.098Z,41.60
2019-04-02T07:58:09.584Z,38.20
2019-04-02T08:00:36.956Z,37.07
2019-04-02T08:03:07.001Z,35.13
2019-04-02T08:05:34.549Z,36.70
2019-04-02T08:08:04.088Z,40.60
2019-04-02T08:10:31.077Z,39.33
2019-04-02T08:12:58.318Z,32.80
2019-04-02T08:15:25.927Z,38.77
2019-04-02T08:17:53.708Z,35.53
2019-04-02T08:20:21.418Z,33.63
2019-04-02T08:22:48.998Z,35.10
2019-04-02T08:25:16.334Z,37.97
2019-04-02T08:27:43.679Z,35.73
2019-04-02T08:30:11.436Z,36.40
2019-04-02T08:32:38.795Z,34.83
2019-04-02T08:35:06.033Z,33.37
2019-04-02T08:37:37.663Z,33.90
2019-04-02T08:40:03.129Z,37.60
2019-04-02T08:42:30.641Z,38.00
2019-04-02T08:44:57.867Z,39.20
2019-04-02T08:47:25.179Z,35.50
2019-04-02T08:49:54.691Z,36.47
2019-04-02T08:52:21.777Z,37.10
2019-04-02T08:54:49.375Z,38.80
2019-04-02T08:57:16.933Z,38.83
2019-04-02T08:59:55.025Z,38.07
2019-04-02T09:02:13.854Z,36.70
2019-04-02T09:04:41.185Z,35.50
2019-04-02T09:07:08.456Z,19.87
2019-04-02T09:09:35.689Z,34.97
2019-04-02T09:12:03.307Z,37.07
2019-04-02T09:14:30.641Z,31.93
2019-04-02T09:16:58.534Z,32.37
2019-04-02T09:19:25.769Z,32.47
2019-04-02T09:21:53.658Z,31.13
2019-04-02T09:24:20.901Z,32.47
2019-04-02T09:26:55.615Z,31.83
2019-04-02T09:29:17.413Z,27.17
2019-04-02T09:31:44.892Z,27.57
2019-04-02T09:34:12.375Z,25.10
2019-04-02T09:36:40.780Z,22.23
2019-04-02T09:39:08.514Z,23.20
2019-04-02T09:41:36.309Z,21.87
2019-04-02T09:44:03.641Z,19.83
2019-04-02T09:46:31.123Z,21.23
2019-04-02T09:48:58.381Z,20.90
2019-04-02T09:51:25.616Z,17.83
2019-04-02T09:53:53.224Z,19.93
2019-04-02T09:56:20.750Z,18.97
2019-04-02T09:58:48.677Z,15.53
2019-04-02T10:01:16.438Z,17.23
2019-04-02T10:03:44.002Z,17.47
2019-04-02T10:06:11.244Z,15.33
2019-04-02T10:08:38.769Z,20.27
2019-04-02T10:11:06.734Z,15.77
2019-04-02T10:13:34.239Z,16.13
2019-04-02T10:16:01.471Z,16.83
2019-04-02T10:18:28.748Z,13.60
2019-04-02T10:20:56.265Z,14.70
2019-04-02T10:23:23.524Z,13.63
2019-04-02T10:25:50.773Z,15.53
2019-04-02T10:28:18.360Z,16.73
2019-04-02T10:30:45.637Z,15.07
2019-04-02T10:33:12.911Z,15.40
2019-04-02T10:35:40.149Z,15.57
2019-04-02T10:38:07.512Z,12.83
2019-04-02T10:40:36.416Z,13.33
2019-04-02T10:43:03.918Z,13.07
2019-04-02T10:45:31.176Z,11.83
2019-04-02T10:47:58.450Z,13.83
2019-04-02T10:50:25.855Z,13.87
2019-04-02T10:52:53.190Z,11.67
2019-04-02T10:55:20.797Z,13.97
2019-04-02T10:57:48.071Z,13.97
2019-04-02T11:00:17.473Z,13.87
2019-04-02T11:02:45.416Z,16.07
2019-04-02T11:05:13.034Z,16.20
2019-04-02T11:07:40.343Z,14.83
2019-04-02T11:10:08.064Z,16.70
2019-04-02T11:12:35.753Z,14.67
2019-04-02T11:15:05.647Z,14.70
2019-04-02T11:17:33.150Z,16.27
2019-04-02T11:20:00.789Z,17.73
2019-04-02T11:22:28.340Z,15.37
2019-04-02T11:24:55.621Z,15.70
2019-04-02T11:27:23.473Z,15.73
2019-04-02T11:29:51.148Z,16.87
2019-04-02T11:32:18.413Z,15.70
2019-04-02T11:34:45.833Z,16.17
2019-04-02T11:37:15.052Z,14.40
2019-04-02T11:39:42.746Z,15.00
2019-04-02T11:42:10.459Z,15.33
2019-04-02T11:44:37.819Z,12.60
2019-04-02T11:47:05.065Z,14.53
2019-04-02T11:49:32.990Z,13.47
2019-04-02T11:52:00.690Z,14.87
2019-04-02T11:54:28.004Z,14.20
2019-04-02T11:56:55.342Z,14.30
2019-04-02T11:59:22.647Z,16.67
2019-04-02T12:01:50.213Z,16.10
2019-04-02T12:04:18.079Z,15.43
2019-04-02T12:06:45.771Z,14.33
2019-04-02T12:09:13.181Z,13.10
2019-04-02T12:11:40.520Z,16.37
2019-04-02T12:14:08.972Z,16.63
2019-04-02T12:16:36.406Z,18.37
2019-04-02T12:19:04.009Z,21.90
2019-04-02T12:21:31.704Z,14.63
2019-04-02T12:23:59.088Z,16.27
2019-04-02T12:26:26.639Z,17.77
2019-04-02T12:28:53.942Z,15.93
2019-04-02T12:31:21.189Z,15.60
2019-04-02T12:33:48.506Z,16.50
2019-04-02T12:36:15.748Z,21.07
2019-04-02T12:38:43.053Z,17.57
2019-04-02T12:41:10.377Z,17.07
2019-04-02T12:43:37.971Z,16.57
2019-04-02T12:46:05.205Z,16.67
2019-04-02T12:48:32.820Z,19.33
2019-04-02T12:51:00.474Z,15.97
2019-04-02T12:53:28.033Z,17.03
2019-04-02T12:55:55.665Z,17.97
2019-04-02T12:58:22.898Z,17.63
2019-04-02T13:00:50.212Z,19.77
2019-04-02T13:03:17.530Z,18.17
2019-04-02T13:05:57.669Z,18.30
2019-04-02T13:08:14.741Z,19.70
2019-04-02T13:10:42.401Z,13.50
2019-04-02T13:13:09.641Z,20.83
2019-04-02T13:15:37.070Z,16.17
2019-04-02T13:18:04.354Z,17.60
2019-04-02T13:20:31.726Z,16.83
2019-04-02T13:23:00.757Z,18.63
2019-04-02T13:25:29.160Z,16.90
2019-04-02T13:27:56.938Z,18.13
2019-04-02T13:30:24.254Z,16.43
2019-04-02T13:32:51.481Z,16.60
2019-04-02T13:35:18.817Z,17.07
2019-04-02T13:37:46.057Z,15.30
2019-04-02T13:40:13.372Z,19.07
2019-04-02T13:42:40.793Z,18.30
2019-04-02T13:45:10.056Z,15.30
2019-04-02T13:47:37.399Z,16.73
2019-04-02T13:50:05.169Z,13.93
2019-04-02T13:52:32.404Z,14.03
2019-04-02T13:54:59.771Z,12.20
2019-04-02T13:57:27.012Z,14.00
2019-04-02T13:59:54.283Z,11.37
2019-04-02T14:02:21.559Z,12.33
2019-04-02T14:04:48.962Z,12.80
2019-04-02T14:07:16.200Z,10.97
2019-04-02T14:09:43.810Z,12.33
2019-04-02T14:12:11.429Z,11.87
2019-04-02T14:14:38.668Z,11.43
2019-04-02T14:17:07.364Z,10.60
2019-04-02T14:19:34.607Z,11.90
2019-04-02T14:22:01.873Z,12.30
2019-04-02T14:24:29.469Z,12.33
2019-04-02T14:26:57.426Z,12.03
2019-04-02T14:29:25.129Z,11.30
2019-04-02T14:31:52.446Z,12.87
2019-04-02T14:34:19.694Z,10.37
2019-04-02T14:36:46.930Z,12.00
2019-04-02T14:39:14.501Z,12.07
2019-04-02T14:41:42.824Z,11.27
2019-04-02T14:44:10.811Z,11.20
2019-04-02T14:46:38.790Z,10.90
2019-04-02T14:49:06.764Z,10.50
2019-04-02T14:51:34.862Z,11.60
2019-04-02T14:54:02.428Z,12.90
2019-04-02T14:56:30.029Z,10.43
2019-04-02T14:58:57.665Z,10.63
2019-04-02T15:01:26.471Z,12.47
2019-04-02T15:03:54.145Z,9.93
2019-04-02T15:06:22.186Z,12.37
2019-04-02T15:08:49.454Z,13.37
2019-04-02T15:11:16.874Z,13.13
2019-04-02T15:13:46.315Z,13.73
2019-04-02T15:16:13.730Z,12.40
2019-04-02T15:18:40.982Z,12.13
2019-04-02T15:21:10.847Z,13.53
2019-04-02T15:23:38.628Z,13.70
2019-04-02T15:28:48.902Z,14.53
2019-04-02T15:31:16.462Z,11.07
2019-04-02T15:33:46.103Z,6.87
2019-04-02T15:36:13.538Z,9.13
2019-04-02T15:38:41.342Z,12.33
2019-04-02T15:41:09.069Z,10.40
2019-04-02T15:43:36.329Z,6.90
2019-04-02T15:46:04.224Z,7.47
2019-04-02T15:48:31.726Z,6.20
2019-04-02T15:50:59.414Z,7.13
2019-04-02T15:53:27.928Z,8.63
2019-04-02T15:55:56.515Z,10.47
2019-04-02T15:58:24.339Z,6.27
2019-04-02T16:00:51.989Z,5.33
2019-04-02T16:03:19.305Z,5.00
2019-04-02T16:05:46.545Z,5.27
2019-04-02T16:08:14.328Z,7.33
2019-04-02T16:10:43.397Z,5.03
2019-04-02T16:13:12.437Z,5.57
2019-04-02T16:15:40.793Z,5.17
2019-04-02T16:18:10.584Z,6.30
2019-04-02T16:20:39.198Z,5.30
2019-04-02T16:23:07.405Z,5.87
2019-04-02T16:25:34.949Z,8.63
2019-04-02T16:28:03.960Z,8.00
2019-04-02T16:30:31.417Z,8.03
2019-04-02T16:32:59.716Z,4.83
2019-04-02T16:35:27.309Z,6.20
2019-04-02T16:37:54.947Z,5.23
2019-04-02T16:40:23.252Z,9.07
2019-04-02T16:42:52.145Z,6.10
2019-04-02T16:45:20.163Z,9.27
2019-04-02T16:47:47.802Z,6.10
2019-04-02T16:50:15.142Z,4.63
2019-04-02T16:52:42.441Z,5.67
2019-04-02T16:55:09.706Z,4.80
2019-04-02T16:57:37.448Z,5.07
2019-04-02T17:00:05.281Z,5.63
2019-04-02T17:02:35.073Z,5.67
2019-04-02T17:05:03.125Z,4.40
2019-04-02T17:07:30.926Z,6.63
2019-04-02T17:09:58.494Z,5.53
2019-04-02T17:12:26.260Z,5.53
2019-04-02T17:14:53.484Z,4.87
2019-04-02T17:17:20.738Z,6.03
2019-04-02T17:19:47.973Z,10.33
2019-04-02T17:22:15.337Z,5.17
2019-04-02T17:24:51.818Z,4.87
2019-04-02T17:27:19.232Z,4.97
2019-04-02T17:29:46.790Z,5.43
2019-04-02T17:32:14.097Z,10.17
2019-04-02T17:34:41.664Z,6.57
2019-04-02T17:37:09.227Z,7.60
2019-04-02T17:39:36.744Z,6.70
2019-04-02T17:42:20.791Z,7.87
2019-04-02T17:44:50.264Z,7.30
2019-04-02T17:47:17.941Z,7.90
2019-04-02T17:49:45.515Z,12.93
2019-04-02T17:52:12.863Z,10.50
2019-04-02T17:54:40.409Z,16.90
2019-04-02T17:57:07.719Z,16.97
2019-04-02T17:59:35.629Z,22.20
2019-04-02T18:02:03.205Z,14.80
2019-04-02T18:04:41.991Z,8.40
2019-04-02T18:06:59.946Z,8.90
2019-04-02T18:09:28.834Z,7.83
2019-04-02T18:11:57.313Z,7.97
2019-04-02T18:14:24.974Z,4.63
2019-04-02T18:16:52.206Z,6.10
2019-04-02T18:19:19.470Z,6.77
2019-04-02T18:21:47.245Z,5.90
2019-04-02T18:24:14.508Z,7.37
2019-04-02T18:26:42.825Z,8.17
2019-04-02T18:29:13.712Z,7.57
2019-04-02T18:31:40.374Z,9.07
2019-04-02T18:34:07.909Z,8.97
2019-04-02T18:36:35.799Z,8.77
2019-04-02T18:39:05.472Z,7.37
2019-04-02T18:41:33.061Z,7.60
2019-04-02T18:44:00.767Z,8.97
2019-04-02T18:46:28.362Z,8.83
2019-04-02T18:48:55.627Z,7.60
2019-04-02T18:51:23.263Z,8.37
2019-04-02T18:53:51.529Z,10.33
2019-04-02T18:56:20.150Z,8.17
2019-04-02T18:58:47.474Z,8.43
2019-04-02T19:01:14.834Z,9.60
2019-04-02T19:03:43.000Z,7.87
2019-04-02T19:06:10.247Z,10.83
2019-04-02T19:08:37.586Z,8.50
2019-04-02T19:11:11.227Z,8.77
2019-04-02T19:13:34.402Z,7.03
2019-04-02T19:16:01.967Z,8.63
2019-04-02T19:18:29.381Z,7.90
2019-04-02T19:20:56.950Z,8.03
2019-04-02T19:23:24.208Z,9.07
2019-04-02T19:25:51.447Z,7.83
2019-04-02T19:28:20.864Z,7.07
2019-04-02T19:30:47.945Z,7.67
2019-04-02T19:33:15.669Z,6.53
2019-04-02T19:35:43.239Z,6.50
2019-04-02T19:38:11.197Z,6.60
2019-04-02T19:40:40.530Z,8.70
2019-04-02T19:43:08.371Z,6.70
2019-04-02T19:45:35.920Z,6.67
2019-04-02T19:48:03.656Z,7.17
2019-04-02T19:50:31.484Z,7.07
2019-04-02T19:52:58.842Z,8.77
2019-04-02T19:55:26.489Z,7.10
2019-04-02T19:57:53.807Z,6.83
2019-04-02T20:00:21.123Z,6.53
2019-04-02T20:02:48.736Z,5.30
2019-04-02T20:05:16.078Z,5.00
2019-04-02T20:07:43.582Z,5.27
2019-04-02T20:10:11.361Z,5.27
2019-04-02T20:12:38.600Z,4.37
2019-04-02T20:15:06.908Z,6.03
2019-04-02T20:17:34.642Z,5.33
2019-04-02T20:20:06.017Z,5.13
2019-04-02T20:22:34.144Z,6.13
2019-04-02T20:25:01.683Z,8.23
2019-04-02T20:27:28.922Z,4.13
2019-04-02T20:29:56.236Z,4.27
2019-04-02T20:32:23.558Z,5.03
2019-04-02T20:34:53.044Z,4.60
2019-04-02T20:37:21.316Z,9.43
2019-04-02T20:39:49.069Z,5.50
2019-04-02T20:42:16.361Z,4.37
2019-04-02T20:44:43.601Z,3.77
2019-04-02T20:47:10.858Z,4.37
2019-04-02T20:49:38.380Z,3.40
2019-04-02T20:52:06.240Z,4.97
2019-04-02T20:54:33.476Z,5.53
2019-04-02T20:57:01.145Z,5.40
2019-04-02T20:59:28.741Z,4.83
2019-04-02T21:01:57.578Z,6.27
2019-04-02T21:04:25.596Z,4.80
2019-04-02T21:06:55.034Z,6.57
2019-04-02T21:09:25.825Z,4.20
2019-04-02T21:11:51.825Z,5.60
2019-04-02T21:14:23.026Z,6.07
2019-04-02T21:16:48.221Z,8.60
2019-04-02T21:19:16.170Z,7.57
2019-04-02T21:21:48.151Z,8.93
2019-04-02T21:24:13.081Z,8.20
2019-04-02T21:26:41.010Z,8.43
2019-04-02T21:29:08.760Z,7.80
2019-04-02T21:31:36.425Z,8.60
2019-04-02T21:34:03.688Z,7.90
2019-04-02T21:36:31.460Z,8.50
2019-04-02T21:38:59.569Z,8.33
2019-04-02T21:41:28.173Z,8.37
2019-04-02T21:43:55.465Z,8.87
2019-04-02T21:46:22.700Z,9.70
2019-04-02T21:48:50.304Z,12.33
2019-04-02T21:51:17.671Z,8.33
2019-04-02T21:53:45.013Z,9.57
2019-04-02T21:56:12.671Z,9.37
2019-04-02T21:58:41.677Z,8.63
2019-04-02T22:01:10.179Z,8.30
2019-04-02T22:03:38.469Z,10.00
2019-04-02T22:06:07.025Z,10.07
2019-04-02T22:08:34.285Z,10.53
2019-04-02T22:11:01.513Z,7.97
2019-04-02T22:13:28.853Z,9.90
2019-04-02T22:15:56.478Z,8.60
2019-04-02T22:18:24.046Z,8.57
2019-04-02T22:20:51.284Z,7.57
2019-04-02T22:23:18.850Z,7.87
2019-04-02T22:25:46.421Z,7.63
2019-04-02T22:28:15.370Z,7.20
2019-04-02T22:30:43.275Z,7.97
2019-04-02T22:33:17.080Z,7.83
2019-04-02T22:35:39.726Z,7.47
2019-04-02T22:38:09.720Z,7.73
2019-04-02T22:40:36.581Z,7.47
2019-04-02T22:43:04.238Z,7.70
2019-04-02T22:45:31.480Z,8.07
2019-04-02T22:47:58.743Z,7.67
2019-04-02T22:50:25.969Z,8.70
2019-04-02T22:52:53.575Z,7.07
2019-04-02T22:55:20.810Z,7.43
2019-04-02T22:57:48.192Z,8.03
2019-04-02T23:00:15.817Z,6.43
2019-04-02T23:02:43.084Z,8.50
2019-04-02T23:05:10.601Z,7.23
2019-04-02T23:07:38.240Z,6.40
2019-04-02T23:10:06.062Z,7.00
2019-04-02T23:12:33.912Z,6.47
2019-04-02T23:15:04.156Z,8.27
2019-04-02T23:17:32.890Z,6.90
2019-04-02T23:19:59.948Z,6.20
2019-04-02T23:22:27.629Z,5.90
2019-04-02T23:24:55.195Z,6.30
2019-04-02T23:27:22.791Z,7.50
2019-04-02T23:29:51.111Z,6.37
2019-04-02T23:32:18.500Z,6.90
2019-04-02T23:34:45.843Z,6.80
2019-04-02T23:37:13.436Z,5.87
2019-04-02T23:39:40.777Z,6.20
2019-04-02T23:42:08.359Z,6.00
2019-04-02T23:44:36.047Z,6.50
2019-04-02T23:47:03.463Z,5.77
2019-04-02T23:49:31.647Z,6.13
2019-04-02T23:52:03.059Z,7.67
2019-04-02T23:54:30.161Z,7.00
2019-04-02T23:56:57.667Z,6.07
2019-04-02T23:59:25.426Z,6.40
